createdAt,value
2024-01-16T00:00:11.084Z,20.83
2024-01-16T00:02:39.695Z,20.82
2024-01-16T00:05:08.698Z,20.81
2024-01-16T00:07:38.694Z,20.79
2024-01-16T00:10:09.300Z,20.83
2024-01-16T00:12:37.712Z,20.84
2024-01-16T00:15:07.780Z,20.84
2024-01-16T00:17:36.417Z,20.86
2024-01-16T00:20:07.109Z,20.88
2024-01-16T00:22:35.534Z,20.89
2024-01-16T00:25:03.933Z,20.90
2024-01-16T00:27:32.329Z,20.89
2024-01-16T00:30:00.740Z,20.93
2024-01-16T00:32:29.161Z,20.94
2024-01-16T00:34:57.528Z,20.95
2024-01-16T00:37:25.914Z,20.96
2024-01-16T00:39:54.312Z,20.99
2024-01-16T00:42:23.034Z,21.04
2024-01-16T00:44:51.459Z,21.05
2024-01-16T00:47:19.996Z,21.07
2024-01-16T00:49:49.449Z,21.12
2024-01-16T00:52:17.965Z,21.15
2024-01-16T00:54:49.846Z,21.21
2024-01-16T00:57:21.259Z,21.25
2024-01-16T00:59:49.765Z,21.31
2024-01-16T01:02:18.325Z,21.37
2024-01-16T01:04:46.925Z,21.42
2024-01-16T01:07:18.323Z,21.47
2024-01-16T01:09:46.744Z,21.51
2024-01-16T01:12:15.135Z,21.54
2024-01-16T01:14:43.688Z,21.61
2024-01-16T01:17:12.091Z,21.66
2024-01-16T01:19:40.937Z,21.74
2024-01-16T01:22:09.292Z,21.79
2024-01-16T01:24:37.658Z,21.83
2024-01-16T01:27:06.370Z,21.92
2024-01-16T01:29:34.807Z,21.96
2024-01-16T01:32:03.256Z,22.03
2024-01-16T01:34:31.722Z,22.09
2024-01-16T01:37:00.087Z,22.16
2024-01-16T01:39:28.595Z,22.24
2024-01-16T01:41:57.405Z,22.32
2024-01-16T01:44:27.000Z,22.36
2024-01-16T01:46:57.722Z,22.42
2024-01-16T01:49:28.051Z,22.49
2024-01-16T01:52:00.298Z,22.54
2024-01-16T01:54:29.804Z,22.61
2024-01-16T01:56:58.587Z,22.68
2024-01-16T01:59:27.762Z,22.75
2024-01-16T02:01:56.673Z,22.79
2024-01-16T02:04:26.907Z,22.83
2024-01-16T02:06:56.486Z,22.90
2024-01-16T02:09:27.487Z,22.97
2024-01-16T02:11:55.972Z,23.03
2024-01-16T02:14:24.565Z,23.09
2024-01-16T02:16:53.020Z,23.14
2024-01-16T02:19:21.527Z,23.22
2024-01-16T02:21:51.556Z,23.29
2024-01-16T02:24:21.157Z,23.36
2024-01-16T02:26:49.872Z,23.43
2024-01-16T02:29:18.364Z,23.49
2024-01-16T02:31:46.852Z,23.54
2024-01-16T02:34:18.109Z,23.59
2024-01-16T02:36:46.557Z,23.65
2024-01-16T02:39:14.958Z,23.71
2024-01-16T02:41:43.872Z,23.78
2024-01-16T02:44:12.574Z,23.85
2024-01-16T02:46:41.075Z,23.91
2024-01-16T02:49:09.677Z,23.99
2024-01-16T02:51:38.152Z,24.07
2024-01-16T02:54:09.763Z,24.13
2024-01-16T02:56:38.306Z,24.20
2024-01-16T02:59:06.813Z,24.26
2024-01-16T03:01:35.429Z,24.35
2024-01-16T03:04:03.868Z,24.43
2024-01-16T03:06:33.809Z,24.48
2024-01-16T03:09:02.430Z,24.54
2024-01-16T03:11:33.335Z,24.60
2024-01-16T03:14:01.951Z,24.65
2024-01-16T03:16:30.576Z,24.70
2024-01-16T03:18:59.050Z,24.74
2024-01-16T03:21:27.486Z,24.79
2024-01-16T03:23:56.773Z,24.86
2024-01-16T03:26:25.290Z,24.87
2024-01-16T03:28:53.705Z,24.95
2024-01-16T03:31:23.404Z,25.02
2024-01-16T03:33:52.490Z,25.07
2024-01-16T03:36:21.012Z,25.13
2024-01-16T03:38:49.453Z,25.19
2024-01-16T03:41:18.011Z,25.24
2024-01-16T03:43:46.809Z,25.33
2024-01-16T03:46:15.251Z,25.40
2024-01-16T03:48:43.772Z,25.45
2024-01-16T03:51:12.199Z,25.50
2024-01-16T03:53:40.616Z,25.56
2024-01-16T03:56:09.855Z,25.63
2024-01-16T03:58:38.348Z,25.68
2024-01-16T04:01:06.852Z,25.73
2024-01-16T04:03:36.813Z,25.79
2024-01-16T04:06:05.537Z,25.85
2024-01-16T04:08:36.923Z,25.92
2024-01-16T04:11:05.466Z,25.96
2024-01-16T04:13:33.951Z,26.03
2024-01-16T04:16:02.420Z,26.05
2024-01-16T04:18:30.860Z,26.11
2024-01-16T04:20:59.299Z,26.15
2024-01-16T04:23:27.751Z,26.22
2024-01-16T04:25:56.135Z,26.27
2024-01-16T04:28:24.580Z,26.32
2024-01-16T04:30:53.318Z,26.36
2024-01-16T04:33:22.230Z,26.37
2024-01-16T04:35:50.741Z,26.41
2024-01-16T04:38:21.754Z,26.46
2024-01-16T04:40:50.665Z,26.53
2024-01-16T04:43:19.072Z,26.57
2024-01-16T04:45:48.335Z,26.61
2024-01-16T04:48:16.942Z,26.68
2024-01-16T04:50:46.696Z,26.69
2024-01-16T04:53:15.359Z,26.72
2024-01-16T04:55:43.835Z,26.74
2024-01-16T04:58:12.478Z,26.80
2024-01-16T05:00:41.000Z,26.84
2024-01-16T05:03:09.345Z,26.90
2024-01-16T05:05:37.938Z,26.94
2024-01-16T05:08:09.721Z,26.99
2024-01-16T05:10:38.222Z,27.02
2024-01-16T05:13:06.610Z,27.05
2024-01-16T05:15:38.170Z,27.06
2024-01-16T05:18:07.757Z,27.09
2024-01-16T05:20:36.493Z,27.14
2024-01-16T05:23:05.069Z,27.19
2024-01-16T05:25:33.470Z,27.20
2024-01-16T05:28:02.695Z,27.23
2024-01-16T05:30:32.320Z,27.26
2024-01-16T05:33:03.038Z,27.30
2024-01-16T05:35:32.058Z,27.34
2024-01-16T05:38:01.283Z,27.36
2024-01-16T05:40:29.623Z,27.37
2024-01-16T05:42:58.568Z,27.43
2024-01-16T05:45:27.010Z,27.43
2024-01-16T05:47:55.416Z,27.50
2024-01-16T05:50:23.924Z,27.50
2024-01-16T05:52:52.387Z,27.53
2024-01-16T05:55:23.398Z,27.54
2024-01-16T05:57:51.783Z,27.61
2024-01-16T06:00:20.596Z,27.65
2024-01-16T06:02:49.030Z,27.69
2024-01-16T06:05:17.607Z,27.75
2024-01-16T06:07:46.292Z,27.77
2024-01-16T06:10:18.341Z,27.81
2024-01-16T06:12:46.759Z,27.85
2024-01-16T06:15:15.173Z,27.87
2024-01-16T06:17:43.754Z,27.90
2024-01-16T06:20:12.853Z,27.92
2024-01-16T06:22:44.906Z,27.92
2024-01-16T06:25:13.414Z,27.95
2024-01-16T06:27:43.205Z,27.98
2024-01-16T06:30:12.416Z,28.00
2024-01-16T06:32:44.550Z,28.04
2024-01-16T06:35:15.799Z,28.05
2024-01-16T06:37:44.534Z,28.08
2024-01-16T06:40:13.327Z,28.12
2024-01-16T06:42:41.874Z,28.14
2024-01-16T06:45:10.507Z,28.17
2024-01-16T06:47:39.363Z,28.19
2024-01-16T06:50:09.972Z,28.26
2024-01-16T06:52:38.490Z,28.24
2024-01-16T06:55:07.219Z,28.28
2024-01-16T06:57:35.713Z,28.34
2024-01-16T07:00:04.275Z,28.37
2024-01-16T07:02:32.748Z,28.41
2024-01-16T07:05:02.050Z,28.40
2024-01-16T07:07:30.529Z,28.44
2024-01-16T07:09:58.912Z,28.46
2024-01-16T07:12:27.383Z,28.48
2024-01-16T07:14:55.796Z,28.47
2024-01-16T07:17:24.300Z,28.49
2024-01-16T07:19:53.935Z,28.54
2024-01-16T07:22:22.764Z,28.55
2024-01-16T07:24:51.167Z,28.57
2024-01-16T07:27:19.775Z,28.59
2024-01-16T07:29:48.459Z,28.62
2024-01-16T07:32:16.932Z,28.65
2024-01-16T07:34:46.354Z,28.69
2024-01-16T07:37:14.885Z,28.69
2024-01-16T07:39:43.527Z,28.72
2024-01-16T07:42:12.873Z,28.73
2024-01-16T07:44:41.701Z,28.71
2024-01-16T07:47:10.322Z,28.71
2024-01-16T07:49:38.917Z,28.72
2024-01-16T07:52:07.546Z,28.72
2024-01-16T07:54:35.923Z,28.73
2024-01-16T07:57:04.648Z,28.72
2024-01-16T07:59:33.759Z,28.74
2024-01-16T08:02:02.553Z,28.74
2024-01-16T08:04:31.027Z,28.75
2024-01-16T08:06:59.500Z,28.78
2024-01-16T08:09:30.567Z,28.79
2024-01-16T08:11:59.524Z,28.79
2024-01-16T08:14:27.932Z,28.80
2024-01-16T08:16:56.453Z,28.83
2024-01-16T08:19:25.072Z,28.84
2024-01-16T08:21:53.522Z,28.86
2024-01-16T08:24:22.076Z,28.86
2024-01-16T08:26:50.605Z,28.87
2024-01-16T08:29:19.199Z,28.84
2024-01-16T08:31:47.703Z,28.85
2024-01-16T08:34:16.628Z,28.85
2024-01-16T08:36:45.252Z,28.84
2024-01-16T08:39:13.966Z,28.86
2024-01-16T08:41:42.384Z,28.84
2024-01-16T08:44:10.881Z,28.83
2024-01-16T08:46:39.628Z,28.81
2024-01-16T08:49:08.094Z,28.81
2024-01-16T08:51:36.603Z,28.81
2024-01-16T08:54:05.088Z,28.81
2024-01-16T08:56:33.535Z,28.78
2024-01-16T08:59:02.081Z,28.77
2024-01-16T09:01:30.477Z,28.77
2024-01-16T09:03:58.980Z,28.75
2024-01-16T09:06:27.716Z,28.72
2024-01-16T09:08:56.446Z,28.71
2024-01-16T09:11:24.937Z,28.69
2024-01-16T09:13:53.773Z,28.65
2024-01-16T09:16:22.120Z,28.63
2024-01-16T09:18:50.532Z,28.61
2024-01-16T09:21:19.005Z,28.59
2024-01-16T09:23:47.396Z,28.59
2024-01-16T09:26:15.875Z,28.56
2024-01-16T09:28:44.269Z,28.56
2024-01-16T09:31:12.799Z,28.51
2024-01-16T09:33:41.317Z,28.48
2024-01-16T09:36:09.826Z,28.45
2024-01-16T09:38:38.567Z,28.43
2024-01-16T09:41:07.952Z,28.43
2024-01-16T09:43:37.273Z,28.41
2024-01-16T09:46:08.377Z,28.39
2024-01-16T09:48:37.004Z,28.36
2024-01-16T09:51:05.866Z,28.34
2024-01-16T09:53:34.696Z,28.32
2024-01-16T09:56:06.427Z,28.28
2024-01-16T09:58:39.201Z,28.26
2024-01-16T10:01:08.309Z,28.25
2024-01-16T10:03:38.017Z,28.22
2024-01-16T10:06:10.504Z,28.18
2024-01-16T10:08:40.307Z,28.10
2024-01-16T10:11:08.709Z,28.12
2024-01-16T10:13:37.999Z,28.08
2024-01-16T10:16:06.708Z,28.08
2024-01-16T10:18:36.722Z,28.02
2024-01-16T10:21:05.423Z,27.98
2024-01-16T10:23:34.969Z,27.98
2024-01-16T10:26:16.160Z,27.95
2024-01-16T10:28:45.678Z,27.92
2024-01-16T10:31:18.702Z,27.89
2024-01-16T10:33:47.530Z,27.83
2024-01-16T10:36:22.568Z,27.82
2024-01-16T10:38:56.474Z,27.78
2024-01-16T10:41:27.292Z,27.75
2024-01-16T10:44:09.958Z,27.70
2024-01-16T10:46:38.992Z,27.68
2024-01-16T10:49:08.467Z,27.63
2024-01-16T10:51:37.371Z,27.61
2024-01-16T10:54:11.544Z,27.57
2024-01-16T10:56:42.346Z,27.52
2024-01-16T10:59:13.689Z,27.48
2024-01-16T11:01:47.743Z,27.43
2024-01-16T11:04:17.733Z,27.36
2024-01-16T11:06:47.086Z,27.31
2024-01-16T11:09:19.268Z,27.24
2024-01-16T11:11:49.224Z,27.17
2024-01-16T11:14:18.573Z,27.08
2024-01-16T11:16:50.149Z,27.00
2024-01-16T11:19:37.690Z,26.92
2024-01-16T11:22:09.331Z,26.82
2024-01-16T11:24:37.723Z,26.75
2024-01-16T11:27:06.651Z,26.69
2024-01-16T11:29:35.089Z,26.64
2024-01-16T11:32:17.969Z,26.56
2024-01-16T11:34:57.573Z,26.49
2024-01-16T11:37:35.105Z,26.41
2024-01-16T11:40:23.114Z,26.38
2024-01-16T11:42:55.246Z,26.31
2024-01-16T11:45:29.874Z,26.25
2024-01-16T11:48:14.524Z,26.18
2024-01-16T11:50:44.158Z,26.14
2024-01-16T11:53:12.667Z,26.09
2024-01-16T11:56:13.406Z,26.05
2024-01-16T11:59:15.199Z,26.01
2024-01-16T12:01:47.357Z,25.98
2024-01-16T12:04:20.144Z,25.88
2024-01-16T12:07:01.140Z,25.92
2024-01-16T12:09:30.734Z,25.88
2024-01-16T12:12:01.520Z,25.87
2024-01-16T12:14:31.118Z,25.84
2024-01-16T12:17:16.232Z,25.80
2024-01-16T12:19:45.586Z,25.77
2024-01-16T12:22:16.863Z,25.69
2024-01-16T12:24:45.316Z,25.63
2024-01-16T12:27:15.303Z,25.56
2024-01-16T12:29:44.132Z,25.49
2024-01-16T12:32:13.820Z,25.44
2024-01-16T12:34:50.515Z,25.39
2024-01-16T12:37:19.150Z,25.32
2024-01-16T12:39:47.568Z,25.30
2024-01-16T12:42:16.493Z,25.23
2024-01-16T12:44:45.045Z,25.21
2024-01-16T12:47:17.154Z,25.16
2024-01-16T12:49:45.912Z,25.15
2024-01-16T12:52:24.099Z,25.12
2024-01-16T12:55:02.932Z,25.08
2024-01-16T12:57:31.548Z,25.06
2024-01-16T13:00:02.881Z,25.02
2024-01-16T13:02:35.671Z,24.98
2024-01-16T13:05:06.061Z,24.91
2024-01-16T13:07:35.081Z,24.89
2024-01-16T13:10:10.726Z,24.88
2024-01-16T13:12:39.733Z,24.83
2024-01-16T13:15:08.771Z,24.84
2024-01-16T13:17:37.870Z,24.82
2024-01-16T13:20:10.060Z,24.77
2024-01-16T13:22:44.738Z,24.75
2024-01-16T13:25:16.440Z,24.72
2024-01-16T13:27:44.946Z,24.71
2024-01-16T13:30:16.609Z,24.68
2024-01-16T13:32:45.284Z,24.63
2024-01-16T13:35:14.200Z,24.62
2024-01-16T13:37:42.736Z,24.58
2024-01-16T13:40:17.406Z,24.56
2024-01-16T13:42:46.539Z,24.57
2024-01-16T13:45:15.404Z,24.55
2024-01-16T13:47:43.970Z,24.53
2024-01-16T13:50:12.653Z,24.51
2024-01-16T13:52:42.499Z,24.48
2024-01-16T13:55:11.200Z,24.48
2024-01-16T13:57:40.510Z,24.47
2024-01-16T14:00:15.335Z,24.42
2024-01-16T14:02:45.125Z,24.44
2024-01-16T14:05:18.200Z,24.44
2024-01-16T14:07:52.614Z,24.43
2024-01-16T14:10:26.717Z,24.41
2024-01-16T14:12:55.141Z,24.40
2024-01-16T14:15:27.542Z,24.39
2024-01-16T14:17:58.489Z,24.37
2024-01-16T14:20:30.493Z,24.34
2024-01-16T14:22:59.852Z,24.34
2024-01-16T14:25:28.309Z,24.32
2024-01-16T14:28:12.320Z,24.32
2024-01-16T14:30:44.798Z,24.31
2024-01-16T14:33:14.869Z,24.31
2024-01-16T14:38:11.320Z,24.29
2024-01-16T14:40:39.678Z,24.26
2024-01-16T14:43:08.031Z,24.27
2024-01-16T14:48:06.546Z,24.25
2024-01-16T14:53:05.065Z,24.30
2024-01-16T14:55:33.402Z,24.29
2024-01-16T14:58:04.821Z,24.29
2024-01-16T15:00:34.908Z,24.30
2024-01-16T15:03:03.984Z,24.30
2024-01-16T15:05:33.272Z,24.32
2024-01-16T15:08:01.775Z,24.33
2024-01-16T15:10:30.141Z,24.31
2024-01-16T15:12:58.478Z,24.32
2024-01-16T15:15:26.957Z,24.34
2024-01-16T15:17:55.406Z,24.39
2024-01-16T15:20:23.866Z,24.43
2024-01-16T15:22:54.741Z,24.46
2024-01-16T15:25:24.647Z,24.51
2024-01-16T15:27:57.201Z,24.56
2024-01-16T15:30:29.932Z,24.57
2024-01-16T15:32:58.437Z,24.61
2024-01-16T15:35:27.049Z,24.62
2024-01-16T15:37:56.535Z,24.65
2024-01-16T15:40:25.235Z,24.65
2024-01-16T15:42:53.759Z,24.66
2024-01-16T15:45:24.367Z,24.66
2024-01-16T15:47:54.688Z,24.67
2024-01-16T15:50:23.331Z,24.68
2024-01-16T15:52:54.062Z,24.67
2024-01-16T15:55:23.039Z,24.66
2024-01-16T15:57:51.446Z,24.63
2024-01-16T16:00:19.913Z,24.57
2024-01-16T16:02:50.987Z,24.55
2024-01-16T16:05:19.550Z,24.52
2024-01-16T16:07:48.634Z,24.48
2024-01-16T16:10:17.305Z,24.45
2024-01-16T16:12:45.639Z,24.42
2024-01-16T16:15:13.973Z,24.37
2024-01-16T16:17:42.706Z,24.36
2024-01-16T16:20:11.951Z,24.32
2024-01-16T16:22:40.596Z,24.30
2024-01-16T16:25:09.413Z,24.25
2024-01-16T16:27:37.800Z,24.24
2024-01-16T16:30:07.745Z,24.20
2024-01-16T16:32:36.268Z,24.17
2024-01-16T16:35:06.240Z,24.17
2024-01-16T16:37:35.835Z,24.14
2024-01-16T16:40:06.853Z,24.12
2024-01-16T16:42:35.340Z,24.09
2024-01-16T16:45:04.370Z,24.07
2024-01-16T16:47:33.798Z,24.08
2024-01-16T16:50:02.163Z,24.09
2024-01-16T16:52:30.548Z,24.10
2024-01-16T16:54:58.885Z,24.08
2024-01-16T16:57:27.280Z,24.07
2024-01-16T16:59:55.730Z,24.09
2024-01-16T17:02:24.571Z,24.07
2024-01-16T17:04:53.490Z,24.06
2024-01-16T17:07:22.001Z,24.03
2024-01-16T17:09:50.427Z,24.01
2024-01-16T17:12:20.213Z,23.97
2024-01-16T17:14:48.751Z,23.93
2024-01-16T17:17:17.279Z,23.91
2024-01-16T17:19:45.743Z,23.86
2024-01-16T17:22:14.076Z,23.86
2024-01-16T17:24:42.418Z,23.84
2024-01-16T17:27:11.145Z,23.85
2024-01-16T17:29:40.672Z,23.82
2024-01-16T17:32:09.736Z,23.81
2024-01-16T17:34:38.220Z,23.83
2024-01-16T17:37:06.686Z,23.80
2024-01-16T17:39:35.147Z,23.80
2024-01-16T17:42:05.678Z,23.79
2024-01-16T17:44:39.006Z,23.79
2024-01-16T17:47:07.607Z,23.76
2024-01-16T17:49:36.047Z,23.72
2024-01-16T17:52:05.951Z,23.76
2024-01-16T17:54:34.296Z,23.72
2024-01-16T17:57:02.674Z,23.72
2024-01-16T17:59:34.160Z,23.70
2024-01-16T18:02:02.837Z,23.68
2024-01-16T18:04:31.253Z,23.68
2024-01-16T18:06:59.740Z,23.66
2024-01-16T18:09:30.757Z,23.62
2024-01-16T18:12:01.041Z,23.62
2024-01-16T18:14:30.165Z,23.61
2024-01-16T18:16:58.961Z,23.58
2024-01-16T18:19:27.396Z,23.57
2024-01-16T18:21:57.523Z,23.56
2024-01-16T18:24:26.729Z,23.53
2024-01-16T18:26:55.240Z,23.52
2024-01-16T18:29:23.987Z,23.52
2024-01-16T18:31:52.404Z,23.49
2024-01-16T18:34:23.945Z,23.49
2024-01-16T18:36:55.180Z,23.43
2024-01-16T18:39:24.289Z,23.43
2024-01-16T18:41:53.351Z,23.40
2024-01-16T18:44:22.221Z,23.38
2024-01-16T18:46:50.677Z,23.37
2024-01-16T18:49:20.507Z,23.37
2024-01-16T18:51:49.546Z,23.34
2024-01-16T18:54:18.098Z,23.31
2024-01-16T18:56:46.757Z,23.31
2024-01-16T18:59:15.161Z,23.29
2024-01-16T19:01:43.896Z,23.25
2024-01-16T19:04:14.570Z,23.25
2024-01-16T19:06:50.028Z,23.23
2024-01-16T19:09:20.017Z,23.19
2024-01-16T19:11:55.195Z,23.17
2024-01-16T19:14:23.639Z,23.15
2024-01-16T19:16:52.256Z,23.12
2024-01-16T19:19:22.686Z,23.09
2024-01-16T19:21:52.064Z,23.05
2024-01-16T19:24:20.537Z,22.98
2024-01-16T19:26:50.427Z,22.94
2024-01-16T19:29:21.666Z,22.92
2024-01-16T19:31:50.591Z,22.88
2024-01-16T19:34:19.122Z,22.85
2024-01-16T19:36:52.212Z,22.83
2024-01-16T19:39:23.046Z,22.81
2024-01-16T19:41:51.489Z,22.77
2024-01-16T19:44:19.884Z,22.76
2024-01-16T19:46:48.301Z,22.72
2024-01-16T19:49:16.791Z,22.69
2024-01-16T19:51:47.216Z,22.69
2024-01-16T19:54:15.612Z,22.65
2024-01-16T19:56:44.196Z,22.61
2024-01-16T19:59:12.829Z,22.59
2024-01-16T20:01:41.176Z,22.56
2024-01-16T20:04:09.613Z,22.52
2024-01-16T20:06:38.772Z,22.48
2024-01-16T20:09:08.136Z,22.41
2024-01-16T20:11:37.364Z,22.42
2024-01-16T20:14:06.313Z,22.39
2024-01-16T20:16:35.000Z,22.37
2024-01-16T20:19:03.475Z,22.31
2024-01-16T20:21:31.928Z,22.30
2024-01-16T20:24:00.831Z,22.27
2024-01-16T20:26:29.574Z,22.27
2024-01-16T20:28:57.956Z,22.23
2024-01-16T20:31:26.411Z,22.18
2024-01-16T20:33:55.063Z,22.17
2024-01-16T20:36:23.689Z,22.13
2024-01-16T20:38:52.230Z,22.11
2024-01-16T20:41:20.798Z,22.07
2024-01-16T20:43:49.149Z,22.03
2024-01-16T20:46:18.680Z,21.98
2024-01-16T20:48:48.319Z,21.98
2024-01-16T20:51:18.022Z,21.93
2024-01-16T20:53:46.400Z,21.90
2024-01-16T20:56:15.525Z,21.88
2024-01-16T20:58:43.911Z,21.86
2024-01-16T21:01:12.386Z,21.83
2024-01-16T21:03:40.925Z,21.79
2024-01-16T21:06:10.550Z,21.77
2024-01-16T21:08:39.689Z,21.74
2024-01-16T21:11:08.168Z,21.72
2024-01-16T21:13:36.658Z,21.71
2024-01-16T21:16:08.774Z,21.69
2024-01-16T21:18:40.073Z,21.66
2024-01-16T21:21:08.544Z,21.63
2024-01-16T21:23:37.275Z,21.62
2024-01-16T21:26:10.852Z,21.58
2024-01-16T21:28:40.277Z,21.57
2024-01-16T21:31:08.724Z,21.54
2024-01-16T21:33:37.760Z,21.51
2024-01-16T21:36:07.028Z,21.46
2024-01-16T21:38:35.407Z,21.47
2024-01-16T21:41:03.800Z,21.45
2024-01-16T21:43:32.680Z,21.44
2024-01-16T21:46:01.143Z,21.43
2024-01-16T21:48:32.873Z,21.42
2024-01-16T21:51:02.487Z,21.40
2024-01-16T21:53:31.077Z,21.37
2024-01-16T21:55:59.478Z,21.33
2024-01-16T21:58:28.446Z,21.31
2024-01-16T22:00:57.601Z,21.27
2024-01-16T22:03:26.014Z,21.25
2024-01-16T22:05:54.440Z,21.23
2024-01-16T22:08:22.903Z,21.20
2024-01-16T22:10:51.342Z,21.18
2024-01-16T22:13:20.329Z,21.16
2024-01-16T22:15:49.774Z,21.11
2024-01-16T22:18:19.126Z,21.09
2024-01-16T22:20:48.233Z,21.07
2024-01-16T22:23:16.998Z,21.01
2024-01-16T22:25:45.501Z,21.00
2024-01-16T22:28:14.396Z,20.98
2024-01-16T22:30:42.894Z,20.98
2024-01-16T22:33:11.426Z,20.96
2024-01-16T22:35:40.117Z,20.94
2024-01-16T22:38:08.517Z,20.91
2024-01-16T22:40:38.568Z,20.88
2024-01-16T22:43:07.398Z,20.90
2024-01-16T22:45:35.757Z,20.86
2024-01-16T22:48:25.836Z,20.86
2024-01-16T22:50:54.657Z,20.83
2024-01-16T22:53:24.318Z,20.81
2024-01-16T22:55:52.697Z,20.78
2024-01-16T22:58:21.137Z,20.77
2024-01-16T23:00:55.473Z,20.76
2024-01-16T23:03:24.015Z,20.74
2024-01-16T23:05:53.245Z,20.72
2024-01-16T23:08:21.769Z,20.71
2024-01-16T23:10:50.164Z,20.68
2024-01-16T23:13:18.688Z,20.65
2024-01-16T23:15:47.330Z,20.63
2024-01-16T23:18:15.840Z,20.61
2024-01-16T23:20:44.363Z,20.59
2024-01-16T23:23:19.697Z,20.57
2024-01-16T23:25:48.365Z,20.53
2024-01-16T23:28:17.248Z,20.51
2024-01-16T23:30:45.807Z,20.47
2024-01-16T23:33:14.339Z,20.45
2024-01-16T23:35:45.328Z,20.41
2024-01-16T23:38:13.756Z,20.39
2024-01-16T23:40:42.424Z,20.35
2024-01-16T23:43:10.888Z,20.34
2024-01-16T23:45:39.686Z,20.32
2024-01-16T23:48:08.317Z,20.30
2024-01-16T23:50:36.853Z,20.27
2024-01-16T23:53:05.584Z,20.27
2024-01-16T23:55:34.430Z,20.27
2024-01-16T23:58:03.125Z,20.24
